createdAt,value
2023-05-19T00:01:28.368Z,102715.91
2023-05-19T00:03:59.137Z,102710.91
2023-05-19T00:06:31.848Z,102706.46
2023-05-19T00:09:05.830Z,102707.95
2023-05-19T00:11:36.395Z,102711.85
2023-05-19T00:14:07.524Z,102707.04
2023-05-19T00:16:38.070Z,102707.09
2023-05-19T00:19:06.834Z,102704.98
2023-05-19T00:21:35.120Z,102703.44
2023-05-19T00:24:03.714Z,102701.74
2023-05-19T00:26:31.780Z,102701.07
2023-05-19T00:29:06.896Z,102699.34
2023-05-19T00:31:35.246Z,102702.02
2023-05-19T00:34:03.338Z,102705.38
2023-05-19T00:36:31.538Z,102703.21
2023-05-19T00:38:59.570Z,102702.52
2023-05-19T00:41:27.884Z,102705.02
2023-05-19T00:43:56.113Z,102702.73
2023-05-19T00:46:24.999Z,102706.09
2023-05-19T00:48:53.343Z,102704.05
2023-05-19T00:51:22.785Z,102702.09
2023-05-19T00:53:52.285Z,102704.09
2023-05-19T00:56:21.915Z,102708.66
2023-05-19T00:58:52.029Z,102703.77
2023-05-19T01:01:21.972Z,102699.02
2023-05-19T01:03:51.633Z,102701.15
2023-05-19T01:06:20.964Z,102696.05
2023-05-19T01:08:51.819Z,102700.59
2023-05-19T01:11:19.932Z,102707.10
2023-05-19T01:13:49.167Z,102708.80
2023-05-19T01:16:39.069Z,102705.95
2023-05-19T01:19:35.257Z,102703.41
2023-05-19T01:22:13.487Z,102699.36
2023-05-19T01:25:03.122Z,102697.61
2023-05-19T01:28:06.452Z,102690.91
2023-05-19T01:30:40.852Z,102692.06
2023-05-19T01:33:14.275Z,102689.50
2023-05-19T01:35:44.339Z,102680.91
2023-05-19T01:38:15.429Z,102678.04
2023-05-19T01:40:45.910Z,102674.16
2023-05-19T01:43:18.109Z,102679.16
2023-05-19T01:45:47.629Z,102680.44
2023-05-19T01:48:16.512Z,102677.52
2023-05-19T01:50:46.881Z,102676.09
2023-05-19T01:53:15.216Z,102681.64
2023-05-19T01:55:49.738Z,102681.29
2023-05-19T01:58:28.725Z,102682.17
2023-05-19T02:01:20.456Z,102677.92
2023-05-19T02:04:20.564Z,102677.69
2023-05-19T02:06:51.621Z,102677.96
2023-05-19T02:09:37.901Z,102677.21
2023-05-19T02:12:17.444Z,102682.23
2023-05-19T02:14:45.537Z,102681.11
2023-05-19T02:17:16.894Z,102684.70
2023-05-19T02:19:45.390Z,102681.65
2023-05-19T02:22:13.546Z,102683.00
2023-05-19T02:24:41.749Z,102687.75
2023-05-19T02:27:09.913Z,102687.17
2023-05-19T02:29:37.971Z,102686.64
2023-05-19T02:32:07.768Z,102687.77
2023-05-19T02:34:36.037Z,102684.77
2023-05-19T02:37:07.948Z,102682.88
2023-05-19T02:39:36.002Z,102676.69
2023-05-19T02:42:04.321Z,102674.79
2023-05-19T02:44:32.554Z,102671.39
2023-05-19T02:47:01.010Z,102667.10
2023-05-19T02:49:31.226Z,102660.05
2023-05-19T02:51:59.235Z,102657.98
2023-05-19T02:54:27.573Z,102657.14
2023-05-19T02:56:55.749Z,102655.52
2023-05-19T02:59:25.605Z,102655.33
2023-05-19T03:02:01.123Z,102655.07
2023-05-19T03:04:30.308Z,102659.48
2023-05-19T03:06:58.585Z,102660.94
2023-05-19T03:09:27.096Z,102668.52
2023-05-19T03:11:55.234Z,102672.09
2023-05-19T03:14:24.588Z,102668.91
2023-05-19T03:16:53.073Z,102666.04
2023-05-19T03:19:21.798Z,102666.42
2023-05-19T03:21:49.876Z,102661.62
2023-05-19T03:24:18.370Z,102655.98
2023-05-19T03:26:46.739Z,102651.41
2023-05-19T03:29:15.222Z,102644.01
2023-05-19T03:31:44.017Z,102643.05
2023-05-19T03:34:12.997Z,102643.08
2023-05-19T03:36:41.524Z,102640.33
2023-05-19T03:39:13.458Z,102637.80
2023-05-19T03:41:41.912Z,102638.07
2023-05-19T03:44:10.450Z,102644.63
2023-05-19T03:46:38.733Z,102648.21
2023-05-19T03:49:09.631Z,102645.34
2023-05-19T03:51:37.733Z,102643.00
2023-05-19T03:54:22.732Z,102639.73
2023-05-19T03:56:52.480Z,102638.42
2023-05-19T03:59:20.551Z,102640.83
2023-05-19T04:01:48.867Z,102645.17
2023-05-19T04:04:16.855Z,102648.36
2023-05-19T04:06:46.756Z,102653.23
2023-05-19T04:09:16.834Z,102658.73
2023-05-19T04:11:44.837Z,102655.45
2023-05-19T04:14:13.061Z,102653.94
2023-05-19T04:16:41.805Z,102652.21
2023-05-19T04:19:10.205Z,102655.54
2023-05-19T04:21:38.527Z,102660.52
2023-05-19T04:24:07.060Z,102655.22
2023-05-19T04:26:36.239Z,102657.61
2023-05-19T04:29:05.117Z,102655.33
2023-05-19T04:31:35.580Z,102654.23
2023-05-19T04:34:04.611Z,102656.68
2023-05-19T04:36:34.185Z,102653.41
2023-05-19T04:39:06.386Z,102660.31
2023-05-19T04:41:35.116Z,102670.20
2023-05-19T04:44:04.402Z,102670.73
2023-05-19T04:46:32.975Z,102671.83
2023-05-19T04:49:04.099Z,102670.77
2023-05-19T04:51:32.405Z,102669.98
2023-05-19T04:54:01.892Z,102671.57
2023-05-19T04:56:30.224Z,102671.73
2023-05-19T04:58:58.358Z,102671.19
2023-05-19T05:01:27.665Z,102669.66
2023-05-19T05:03:59.263Z,102665.45
2023-05-19T05:06:28.802Z,102665.14
2023-05-19T05:08:57.090Z,102669.05
2023-05-19T05:11:26.912Z,102669.58
2023-05-19T05:13:58.310Z,102671.06
2023-05-19T05:16:28.492Z,102671.17
2023-05-19T05:18:58.457Z,102661.77
2023-05-19T05:21:28.270Z,102654.02
2023-05-19T05:23:56.857Z,102652.67
2023-05-19T05:26:30.971Z,102652.91
2023-05-19T05:28:59.192Z,102650.97
2023-05-19T05:31:27.446Z,102648.61
2023-05-19T05:33:55.902Z,102648.61
2023-05-19T05:36:25.957Z,102651.54
2023-05-19T05:38:54.817Z,102653.98
2023-05-19T05:41:24.266Z,102657.36
2023-05-19T05:43:52.797Z,102657.50
2023-05-19T05:46:21.159Z,102648.11
2023-05-19T05:48:49.608Z,102646.66
2023-05-19T05:51:18.268Z,102644.08
2023-05-19T05:53:52.328Z,102651.20
2023-05-19T05:56:22.274Z,102653.48
2023-05-19T05:58:52.793Z,102657.48
2023-05-19T06:01:22.038Z,102655.66
2023-05-19T06:03:50.049Z,102654.85
2023-05-19T06:06:21.516Z,102652.34
2023-05-19T06:08:49.562Z,102650.38
2023-05-19T06:11:19.663Z,102654.02
2023-05-19T06:13:48.815Z,102658.02
2023-05-19T06:16:24.486Z,102659.77
2023-05-19T06:18:54.761Z,102654.43
2023-05-19T06:21:23.058Z,102657.29
2023-05-19T06:23:51.231Z,102659.11
2023-05-19T06:26:19.611Z,102663.09
2023-05-19T06:28:48.190Z,102669.13
2023-05-19T06:31:16.686Z,102670.10
2023-05-19T06:33:54.477Z,102675.89
2023-05-19T06:36:22.932Z,102667.65
2023-05-19T06:38:52.390Z,102663.27
2023-05-19T06:41:22.172Z,102665.49
2023-05-19T06:43:52.433Z,102662.23
2023-05-19T06:46:23.559Z,102664.31
2023-05-19T06:48:52.242Z,102657.02
2023-05-19T06:51:22.830Z,102652.71
2023-05-19T06:53:54.670Z,102648.72
2023-05-19T06:56:23.508Z,102647.52
2023-05-19T06:58:52.193Z,102649.84
2023-05-19T07:01:21.541Z,102650.13
2023-05-19T07:03:52.798Z,102657.11
2023-05-19T07:06:22.173Z,102658.88
2023-05-19T07:08:51.253Z,102661.14
2023-05-19T07:11:20.034Z,102661.36
2023-05-19T07:13:48.674Z,102666.72
2023-05-19T07:16:21.329Z,102663.89
2023-05-19T07:18:49.867Z,102657.57
2023-05-19T07:21:18.344Z,102651.92
2023-05-19T07:23:48.062Z,102660.77
2023-05-19T07:26:16.075Z,102655.33
2023-05-19T07:28:44.311Z,102652.84
2023-05-19T07:31:12.338Z,102649.06
2023-05-19T07:33:41.438Z,102648.55
2023-05-19T07:36:09.646Z,102649.56
2023-05-19T07:38:37.776Z,102643.98
2023-05-19T07:41:05.995Z,102644.14
2023-05-19T07:43:34.313Z,102647.28
2023-05-19T07:46:02.575Z,102645.59
2023-05-19T07:48:30.875Z,102650.30
2023-05-19T07:50:59.311Z,102650.27
2023-05-19T07:53:28.102Z,102643.45
2023-05-19T07:55:58.370Z,102647.86
2023-05-19T07:58:26.863Z,102652.69
2023-05-19T08:00:58.589Z,102654.87
2023-05-19T08:03:27.539Z,102654.52
2023-05-19T08:05:56.645Z,102651.73
2023-05-19T08:08:24.857Z,102650.70
2023-05-19T08:10:53.018Z,102646.37
2023-05-19T08:13:21.178Z,102637.50
2023-05-19T08:15:49.487Z,102635.61
2023-05-19T08:18:17.621Z,102627.58
2023-05-19T08:20:46.636Z,102627.79
2023-05-19T08:23:14.791Z,102622.45
2023-05-19T08:25:43.163Z,102622.21
2023-05-19T08:28:11.541Z,102615.90
2023-05-19T08:30:39.817Z,102607.27
2023-05-19T08:33:08.602Z,102600.30
2023-05-19T08:35:36.696Z,102601.92
2023-05-19T08:38:04.625Z,102598.65
2023-05-19T08:40:35.077Z,102597.88
2023-05-19T08:43:03.920Z,102590.67
2023-05-19T08:45:34.739Z,102588.99
2023-05-19T08:48:04.338Z,102590.06
2023-05-19T08:50:39.554Z,102594.66
2023-05-19T08:53:32.564Z,102595.29
2023-05-19T08:56:11.534Z,102596.54
2023-05-19T08:58:44.063Z,102598.44
2023-05-19T09:01:18.128Z,102602.17
2023-05-19T09:03:49.637Z,102602.85
2023-05-19T09:06:18.252Z,102602.45
2023-05-19T09:08:47.281Z,102602.70
2023-05-19T09:11:15.449Z,102598.68
2023-05-19T09:13:43.864Z,102594.89
2023-05-19T09:16:12.385Z,102595.77
2023-05-19T09:18:41.278Z,102595.54
2023-05-19T09:21:11.360Z,102594.30
2023-05-19T09:23:39.519Z,102593.02
2023-05-19T09:26:08.315Z,102593.48
2023-05-19T09:28:38.234Z,102597.26
2023-05-19T09:31:08.668Z,102599.49
2023-05-19T09:33:45.632Z,102606.23
2023-05-19T09:36:14.390Z,102609.32
2023-05-19T09:38:42.780Z,102601.93
2023-05-19T09:41:11.021Z,102597.83
2023-05-19T09:43:39.203Z,102596.23
2023-05-19T09:46:10.104Z,102595.34
2023-05-19T09:48:39.940Z,102596.56
2023-05-19T09:51:11.119Z,102596.46
2023-05-19T09:53:39.473Z,102597.59
2023-05-19T09:56:08.856Z,102603.11
2023-05-19T09:58:37.795Z,102607.67
2023-05-19T10:01:07.682Z,102603.17
2023-05-19T10:03:36.917Z,102607.06
2023-05-19T10:06:07.532Z,102604.88
2023-05-19T10:08:38.016Z,102606.32
2023-05-19T10:11:06.687Z,102610.15
2023-05-19T10:13:38.594Z,102612.16
2023-05-19T10:16:08.716Z,102614.66
2023-05-19T10:18:39.974Z,102615.02
2023-05-19T10:21:09.854Z,102607.73
2023-05-19T10:23:38.751Z,102604.71
2023-05-19T10:26:08.809Z,102599.20
2023-05-19T10:28:39.736Z,102593.55
2023-05-19T10:31:11.620Z,102596.13
2023-05-19T10:34:03.090Z,102587.59
2023-05-19T10:36:38.088Z,102584.23
2023-05-19T10:39:16.781Z,102583.20
2023-05-19T10:41:54.034Z,102578.03
2023-05-19T10:44:41.113Z,102575.39
2023-05-19T10:47:12.146Z,102578.13
2023-05-19T10:49:40.813Z,102581.03
2023-05-19T10:52:26.231Z,102575.64
2023-05-19T10:54:54.895Z,102573.31
2023-05-19T10:57:28.432Z,102566.89
2023-05-19T10:59:57.557Z,102572.13
2023-05-19T11:02:43.436Z,102563.39
2023-05-19T11:05:15.136Z,102557.30
2023-05-19T11:07:45.137Z,102554.80
2023-05-19T11:10:13.699Z,102549.09
2023-05-19T11:12:45.078Z,102545.33
2023-05-19T11:15:16.613Z,102556.66
2023-05-19T11:17:49.078Z,102563.67
2023-05-19T11:20:28.397Z,102560.80
2023-05-19T11:23:06.489Z,102549.66
2023-05-19T11:25:45.028Z,102548.22
2023-05-19T11:28:16.623Z,102547.70
2023-05-19T11:30:46.632Z,102546.79
2023-05-19T11:33:15.011Z,102549.49
2023-05-19T11:35:44.062Z,102548.77
2023-05-19T11:38:13.476Z,102553.11
2023-05-19T11:40:42.657Z,102555.64
2023-05-19T11:43:11.056Z,102557.23
2023-05-19T11:45:39.722Z,102556.17
2023-05-19T11:48:16.029Z,102554.91
2023-05-19T11:50:44.505Z,102551.30
2023-05-19T11:53:16.647Z,102548.09
2023-05-19T11:55:49.016Z,102543.59
2023-05-19T11:58:17.606Z,102547.38
2023-05-19T12:00:47.861Z,102546.48
2023-05-19T12:03:21.409Z,102542.34
2023-05-19T12:05:49.999Z,102538.39
2023-05-19T12:08:19.195Z,102530.85
2023-05-19T12:10:52.976Z,102524.92
2023-05-19T12:13:23.117Z,102523.33
2023-05-19T12:15:52.724Z,102521.52
2023-05-19T12:18:21.581Z,102518.48
2023-05-19T12:20:50.247Z,102520.44
2023-05-19T12:23:18.582Z,102523.13
2023-05-19T12:25:48.371Z,102514.33
2023-05-19T12:28:17.394Z,102515.60
2023-05-19T12:30:51.852Z,102508.23
2023-05-19T12:33:20.193Z,102502.12
2023-05-19T12:35:50.070Z,102506.08
2023-05-19T12:38:20.119Z,102507.15
2023-05-19T12:40:50.346Z,102499.44
2023-05-19T12:43:25.284Z,102496.73
2023-05-19T12:45:53.691Z,102495.11
2023-05-19T12:48:22.998Z,102494.41
2023-05-19T12:50:55.813Z,102489.19
2023-05-19T12:53:27.748Z,102487.21
2023-05-19T12:55:56.180Z,102482.89
2023-05-19T12:58:24.557Z,102478.25
2023-05-19T13:01:00.121Z,102475.92
2023-05-19T13:03:28.556Z,102474.67
2023-05-19T13:05:59.882Z,102470.20
2023-05-19T13:08:27.910Z,102470.18
2023-05-19T13:10:56.401Z,102468.00
2023-05-19T13:13:24.610Z,102469.04
2023-05-19T13:15:52.581Z,102468.31
2023-05-19T13:18:20.653Z,102459.11
2023-05-19T13:20:53.134Z,102459.65
2023-05-19T13:23:21.381Z,102458.02
2023-05-19T13:25:50.981Z,102463.98
2023-05-19T13:28:19.370Z,102463.11
2023-05-19T13:30:48.391Z,102462.41
2023-05-19T13:33:16.612Z,102459.55
2023-05-19T13:35:44.889Z,102453.64
2023-05-19T13:38:13.374Z,102453.79
2023-05-19T13:40:41.655Z,102450.16
2023-05-19T13:43:09.860Z,102448.88
2023-05-19T13:45:38.206Z,102449.94
2023-05-19T13:48:07.564Z,102446.00
2023-05-19T13:50:36.390Z,102444.72
2023-05-19T13:53:04.884Z,102447.38
2023-05-19T13:55:33.240Z,102448.85
2023-05-19T13:58:01.581Z,102450.52
2023-05-19T14:00:32.045Z,102454.55
2023-05-19T14:03:00.727Z,102449.36
2023-05-19T14:05:29.406Z,102450.65
2023-05-19T14:07:58.250Z,102441.67
2023-05-19T14:10:27.095Z,102437.00
2023-05-19T14:13:28.921Z,102435.74
2023-05-19T14:15:44.603Z,102432.32
2023-05-19T14:18:12.768Z,102430.52
2023-05-19T14:20:41.054Z,102422.80
2023-05-19T14:23:09.196Z,102419.90
2023-05-19T14:25:37.267Z,102421.46
2023-05-19T14:28:05.623Z,102428.13
2023-05-19T14:30:34.437Z,102419.73
2023-05-19T14:33:02.926Z,102417.59
2023-05-19T14:35:31.180Z,102417.21
2023-05-19T14:37:59.266Z,102408.96
2023-05-19T14:40:27.450Z,102408.98
2023-05-19T14:42:55.783Z,102404.61
2023-05-19T14:45:24.152Z,102407.66
2023-05-19T14:47:52.923Z,102400.50
2023-05-19T14:50:21.164Z,102399.59
2023-05-19T14:52:49.308Z,102401.58
2023-05-19T14:55:17.610Z,102393.67
2023-05-19T14:57:46.604Z,102394.17
2023-05-19T15:00:14.864Z,102385.89
2023-05-19T15:02:43.723Z,102389.45
2023-05-19T15:05:12.180Z,102388.23
2023-05-19T15:07:40.248Z,102392.77
2023-05-19T15:10:16.617Z,102391.54
2023-05-19T15:12:44.631Z,102394.26
2023-05-19T15:15:12.860Z,102393.21
2023-05-19T15:17:41.192Z,102399.34
2023-05-19T15:20:09.897Z,102390.21
2023-05-19T15:22:38.100Z,102395.05
2023-05-19T15:25:06.973Z,102384.83
2023-05-19T15:27:38.713Z,102384.84
2023-05-19T15:30:07.500Z,102387.88
2023-05-19T15:32:35.674Z,102390.58
2023-05-19T15:35:03.787Z,102393.08
2023-05-19T15:37:31.903Z,102391.48
2023-05-19T15:39:59.905Z,102393.79
2023-05-19T15:42:28.355Z,102391.61
2023-05-19T15:44:56.483Z,102388.92
2023-05-19T15:47:24.441Z,102388.77
2023-05-19T15:49:52.628Z,102384.45
2023-05-19T15:52:21.050Z,102382.33
2023-05-19T15:54:49.328Z,102382.14
2023-05-19T15:57:17.446Z,102382.14
2023-05-19T15:59:46.087Z,102378.55
2023-05-19T16:02:15.097Z,102377.62
2023-05-19T16:04:43.357Z,102376.17
2023-05-19T16:07:11.561Z,102376.21
2023-05-19T16:09:39.611Z,102369.95
2023-05-19T16:12:08.228Z,102367.24
2023-05-19T16:14:38.004Z,102361.30
2023-05-19T16:17:11.458Z,102372.60
2023-05-19T16:19:39.459Z,102365.59
2023-05-19T16:22:07.666Z,102363.27
2023-05-19T16:24:35.940Z,102361.29
2023-05-19T16:27:05.117Z,102360.36
2023-05-19T16:29:33.401Z,102352.11
2023-05-19T16:32:01.859Z,102354.25
2023-05-19T16:34:30.768Z,102354.23
2023-05-19T16:36:59.145Z,102351.73
2023-05-19T16:39:27.418Z,102352.61
2023-05-19T16:41:55.596Z,102361.05
2023-05-19T16:44:24.790Z,102354.23
2023-05-19T16:46:52.807Z,102355.30
2023-05-19T16:49:20.996Z,102355.48
2023-05-19T16:51:49.105Z,102349.73
2023-05-19T16:54:17.589Z,102356.19
2023-05-19T16:56:46.262Z,102354.24
2023-05-19T16:59:14.305Z,102358.92
2023-05-19T17:01:42.420Z,102360.92
2023-05-19T17:04:10.652Z,102361.84
2023-05-19T17:06:38.765Z,102359.52
2023-05-19T17:09:07.996Z,102357.91
2023-05-19T17:11:36.387Z,102364.38
2023-05-19T17:14:07.994Z,102360.62
2023-05-19T17:16:36.951Z,102364.92
2023-05-19T17:19:05.043Z,102364.21
2023-05-19T17:21:33.958Z,102360.63
2023-05-19T17:24:02.128Z,102364.22
2023-05-19T17:26:30.227Z,102358.84
2023-05-19T17:28:58.884Z,102360.80
2023-05-19T17:31:26.939Z,102360.42
2023-05-19T17:33:55.128Z,102366.86
2023-05-19T17:36:23.408Z,102363.61
2023-05-19T17:38:51.583Z,102361.44
2023-05-19T17:41:19.668Z,102368.42
2023-05-19T17:43:47.990Z,102367.34
2023-05-19T17:46:16.546Z,102364.46
2023-05-19T17:48:44.992Z,102367.33
2023-05-19T17:51:13.173Z,102373.58
2023-05-19T17:53:41.714Z,102366.56
2023-05-19T17:56:12.182Z,102373.15
2023-05-19T17:58:41.484Z,102375.61
2023-05-19T18:01:10.038Z,102372.61
2023-05-19T18:03:38.613Z,102377.73
2023-05-19T18:06:07.655Z,102381.79
2023-05-19T18:08:37.890Z,102379.38
2023-05-19T18:11:06.243Z,102378.91
2023-05-19T18:13:34.513Z,102381.13
2023-05-19T18:16:02.606Z,102382.45
2023-05-19T18:18:31.171Z,102383.98
2023-05-19T18:20:59.126Z,102382.42
2023-05-19T18:23:27.414Z,102380.75
2023-05-19T18:25:55.552Z,102381.94
2023-05-19T18:28:24.276Z,102385.80
2023-05-19T18:31:06.488Z,102383.22
2023-05-19T18:33:35.370Z,102387.23
2023-05-19T18:36:03.761Z,102386.77
2023-05-19T18:38:32.064Z,102393.60
2023-05-19T18:41:00.871Z,102393.50
2023-05-19T18:43:30.361Z,102392.52
2023-05-19T18:45:58.996Z,102390.14
2023-05-19T18:48:27.231Z,102388.11
2023-05-19T18:50:55.555Z,102390.45
2023-05-19T18:53:23.604Z,102394.48
2023-05-19T18:55:51.729Z,102400.11
2023-05-19T18:58:20.080Z,102402.18
2023-05-19T19:00:48.276Z,102399.73
2023-05-19T19:03:16.644Z,102410.46
2023-05-19T19:05:45.419Z,102416.19
2023-05-19T19:08:13.710Z,102420.27
2023-05-19T19:10:42.616Z,102411.55
2023-05-19T19:13:10.804Z,102413.55
2023-05-19T19:15:39.759Z,102424.67
2023-05-19T19:18:08.329Z,102422.00
2023-05-19T19:20:36.525Z,102424.17
2023-05-19T19:23:06.900Z,102428.75
2023-05-19T19:25:35.426Z,102428.14
2023-05-19T19:28:04.002Z,102426.30
2023-05-19T19:30:32.481Z,102429.27
2023-05-19T19:33:00.783Z,102428.33
2023-05-19T19:35:28.870Z,102430.41
2023-05-19T19:37:58.657Z,102436.61
2023-05-19T19:40:26.930Z,102437.45
2023-05-19T19:42:55.493Z,102440.06
2023-05-19T19:45:24.092Z,102440.92
2023-05-19T19:47:52.794Z,102438.70
2023-05-19T19:50:21.972Z,102437.92
2023-05-19T19:52:50.400Z,102438.77
2023-05-19T19:55:18.654Z,102444.40
2023-05-19T19:57:49.605Z,102442.75
2023-05-19T20:00:18.790Z,102443.77
2023-05-19T20:03:03.846Z,102440.23
2023-05-19T20:05:34.873Z,102443.72
2023-05-19T20:08:03.070Z,102448.68
2023-05-19T20:10:31.466Z,102449.19
2023-05-19T20:12:59.918Z,102453.37
2023-05-19T20:15:28.288Z,102453.20
2023-05-19T20:17:56.571Z,102453.20
2023-05-19T20:20:24.833Z,102455.29
2023-05-19T20:22:52.832Z,102458.21
2023-05-19T20:25:20.996Z,102458.82
2023-05-19T20:27:49.581Z,102457.94
2023-05-19T20:30:17.782Z,102460.89
2023-05-19T20:32:48.877Z,102460.88
2023-05-19T20:35:17.216Z,102465.05
2023-05-19T20:37:45.260Z,102467.23
2023-05-19T20:40:13.857Z,102470.24
2023-05-19T20:42:42.413Z,102473.41
2023-05-19T20:45:10.722Z,102474.95
2023-05-19T20:47:38.988Z,102479.67
2023-05-19T20:50:07.785Z,102482.52
2023-05-19T20:52:36.089Z,102487.64
2023-05-19T20:55:04.413Z,102492.08
2023-05-19T20:57:33.230Z,102496.46
2023-05-19T21:00:01.571Z,102499.22
2023-05-19T21:02:29.853Z,102496.03
2023-05-19T21:04:58.139Z,102500.48
2023-05-19T21:07:26.537Z,102495.80
2023-05-19T21:09:54.747Z,102491.82
2023-05-19T21:12:25.451Z,102490.23
2023-05-19T21:14:53.488Z,102488.05
2023-05-19T21:17:21.683Z,102485.88
2023-05-19T21:19:50.661Z,102484.46
2023-05-19T21:22:19.032Z,102483.41
2023-05-19T21:24:47.304Z,102484.08
2023-05-19T21:27:15.406Z,102484.48
2023-05-19T21:29:43.655Z,102493.52
2023-05-19T21:32:11.934Z,102495.23
2023-05-19T21:34:40.003Z,102492.62
2023-05-19T21:37:08.081Z,102495.30
2023-05-19T21:39:36.169Z,102497.21
2023-05-19T21:42:04.839Z,102499.71
2023-05-19T21:44:32.932Z,102500.70
2023-05-19T21:47:01.305Z,102502.95
2023-05-19T21:49:29.478Z,102502.08
2023-05-19T21:51:57.752Z,102500.80
2023-05-19T21:54:25.900Z,102499.73
2023-05-19T21:56:53.865Z,102499.16
2023-05-19T21:59:24.911Z,102498.71
2023-05-19T22:01:53.284Z,102498.33
2023-05-19T22:04:22.634Z,102496.30
2023-05-19T22:06:51.300Z,102497.16
2023-05-19T22:09:19.391Z,102495.91
2023-05-19T22:11:47.935Z,102494.89
2023-05-19T22:14:15.972Z,102489.36
2023-05-19T22:16:44.999Z,102485.45
2023-05-19T22:19:14.771Z,102487.13
2023-05-19T22:21:43.049Z,102482.71
2023-05-19T22:24:11.264Z,102481.34
2023-05-19T22:26:42.806Z,102484.23
2023-05-19T22:29:15.249Z,102482.92
2023-05-19T22:31:43.512Z,102483.14
2023-05-19T22:34:12.847Z,102483.28
2023-05-19T22:36:44.104Z,102487.29
2023-05-19T22:39:15.156Z,102488.25
2023-05-19T22:41:43.385Z,102487.95
2023-05-19T22:44:15.700Z,102487.20
2023-05-19T22:46:44.899Z,102487.49
2023-05-19T22:49:13.276Z,102491.56
2023-05-19T22:51:41.679Z,102489.04
2023-05-19T22:54:10.746Z,102488.33
2023-05-19T22:56:38.725Z,102488.27
2023-05-19T22:59:06.644Z,102487.52
2023-05-19T23:01:34.870Z,102489.48
2023-05-19T23:04:04.013Z,102486.91
2023-05-19T23:06:32.400Z,102484.95
2023-05-19T23:09:04.472Z,102486.92
2023-05-19T23:11:32.518Z,102485.14
2023-05-19T23:14:00.925Z,102487.63
2023-05-19T23:16:29.274Z,102483.69
2023-05-19T23:18:57.596Z,102485.17
2023-05-19T23:21:25.882Z,102486.55
2023-05-19T23:23:54.203Z,102485.95
2023-05-19T23:26:22.468Z,102484.30
2023-05-19T23:28:50.715Z,102484.10
2023-05-19T23:31:18.743Z,102483.52
2023-05-19T23:33:46.974Z,102484.43
2023-05-19T23:36:16.164Z,102488.28
2023-05-19T23:38:44.455Z,102490.49
2023-05-19T23:41:12.963Z,102489.31
2023-05-19T23:43:41.005Z,102488.95
2023-05-19T23:46:09.572Z,102488.09
2023-05-19T23:48:37.960Z,102480.98
2023-05-19T23:51:06.105Z,102477.80
2023-05-19T23:53:34.305Z,102476.01
2023-05-19T23:56:02.555Z,102472.10
2023-05-19T23:58:30.830Z,102472.55
